< < Back
Terminal Aerodrome Forecast


Current Version              Previous Versions:   1  2  3  4  5  6  7  8  9  

Terminal Aerodrome Forecast

173
FTUS42 KTAE 192300
TAFVLD
TAF
KVLD 192322Z 2000/2024 00000KT P6SM SKC
     FM201000 00000KT 6SM BR FEW250
     FM201400 09005KT P6SM SCT250
     FM202300 00000KT P6SM SCT100 SCT250=



Latest METAR

090
SAUS70 KWBC 200900 RRG
MTRVLD
METAR KVLD 200853Z AUTO 00000KT 10SM OVC043 13/11 A3007 RMK AO2 SLP188
T01280106 56009


USA.gov is the U.S. government's official web portal to all federal, state and local government web resources and services.